sensor_id;sensor_type;location;lat;lon;timestamp;pressure;altitude;pressure_sealevel;temperature;humidity
64158;BME280;50449;51.528;5.076;2022-12-20T00:00:08;101245.97;;;8.42;69.88
64158;BME280;50449;51.528;5.076;2022-12-20T00:02:34;101253.22;;;8.42;69.93
64158;BME280;50449;51.528;5.076;2022-12-20T00:04:59;101252.38;;;8.41;69.75
64158;BME280;50449;51.528;5.076;2022-12-20T00:07:24;101258.59;;;8.42;69.80
64158;BME280;50449;51.528;5.076;2022-12-20T00:09:49;101250.53;;;8.42;69.86
64158;BME280;50449;51.528;5.076;2022-12-20T00:12:15;101247.84;;;8.42;69.83
64158;BME280;50449;51.528;5.076;2022-12-20T00:14:41;101255.06;;;8.41;69.97
64158;BME280;50449;51.528;5.076;2022-12-20T00:17:06;101245.13;;;8.42;69.71
64158;BME280;50449;51.528;5.076;2022-12-20T00:19:31;101241.41;;;8.43;70.09
64158;BME280;50449;51.528;5.076;2022-12-20T00:21:56;101237.66;;;8.44;69.90
64158;BME280;50449;51.528;5.076;2022-12-20T00:24:22;101240.34;;;8.44;70.02
64158;BME280;50449;51.528;5.076;2022-12-20T00:26:47;101222.34;;;8.44;69.90
64158;BME280;50449;51.528;5.076;2022-12-20T00:29:12;101218.81;;;8.44;69.79
64158;BME280;50449;51.528;5.076;2022-12-20T00:31:37;101221.28;;;8.45;69.80
64158;BME280;50449;51.528;5.076;2022-12-20T00:34:03;101228.31;;;8.47;69.74
64158;BME280;50449;51.528;5.076;2022-12-20T00:36:29;101232.06;;;8.45;69.99
64158;BME280;50449;51.528;5.076;2022-12-20T00:38:56;101225.63;;;8.47;69.86
64158;BME280;50449;51.528;5.076;2022-12-20T00:41:26;101223.97;;;8.45;70.07
64158;BME280;50449;51.528;5.076;2022-12-20T00:43:52;101213.22;;;8.45;69.98
64158;BME280;50449;51.528;5.076;2022-12-20T00:46:18;101212.16;;;8.47;69.94
64158;BME280;50449;51.528;5.076;2022-12-20T00:48:43;101215.69;;;8.47;69.95
64158;BME280;50449;51.528;5.076;2022-12-20T00:51:13;101218.41;;;8.47;70.16
64158;BME280;50449;51.528;5.076;2022-12-20T00:53:39;101214.66;;;8.48;70.17
64158;BME280;50449;51.528;5.076;2022-12-20T00:56:05;101227.28;;;8.48;70.26
64158;BME280;50449;51.528;5.076;2022-12-20T00:58:31;101208.44;;;8.48;70.00
64158;BME280;50449;51.528;5.076;2022-12-20T01:00:57;101216.28;;;8.49;70.15
64158;BME280;50449;51.528;5.076;2022-12-20T01:03:22;101219.81;;;8.50;70.19
64158;BME280;50449;51.528;5.076;2022-12-20T01:05:54;101220.66;;;8.50;70.07
64158;BME280;50449;51.528;5.076;2022-12-20T01:08:20;101232.44;;;8.49;70.29
64158;BME280;50449;51.528;5.076;2022-12-20T01:10:45;101222.28;;;8.51;70.40
64158;BME280;50449;51.528;5.076;2022-12-20T01:13:11;101215.88;;;8.52;70.00
64158;BME280;50449;51.528;5.076;2022-12-20T01:15:36;101227.47;;;8.53;70.07
64158;BME280;50449;51.528;5.076;2022-12-20T01:18:02;101220.19;;;8.53;69.96
64158;BME280;50449;51.528;5.076;2022-12-20T01:20:27;101218.31;;;8.54;70.20
64158;BME280;50449;51.528;5.076;2022-12-20T01:22:52;101222.91;;;8.53;70.04
64158;BME280;50449;51.528;5.076;2022-12-20T01:25:17;101220.00;;;8.55;70.25
64158;BME280;50449;51.528;5.076;2022-12-20T01:27:43;101214.63;;;8.55;70.28
64158;BME280;50449;51.528;5.076;2022-12-20T01:30:08;101201.97;;;8.55;70.12
64158;BME280;50449;51.528;5.076;2022-12-20T01:32:33;101198.22;;;8.56;70.09
64158;BME280;50449;51.528;5.076;2022-12-20T01:34:59;101191.00;;;8.57;70.26
64158;BME280;50449;51.528;5.076;2022-12-20T01:37:24;101191.00;;;8.57;70.20
64158;BME280;50449;51.528;5.076;2022-12-20T01:39:49;101186.41;;;8.57;70.35
64158;BME280;50449;51.528;5.076;2022-12-20T01:42:14;101185.38;;;8.58;70.06
64158;BME280;50449;51.528;5.076;2022-12-20T01:47:05;101178.09;;;8.59;70.34
64158;BME280;50449;51.528;5.076;2022-12-20T01:49:38;101185.97;;;8.60;70.20
64158;BME280;50449;51.528;5.076;2022-12-20T01:52:22;101184.94;;;8.61;70.27
64158;BME280;50449;51.528;5.076;2022-12-20T01:54:52;101176.84;;;8.61;70.37
64158;BME280;50449;51.528;5.076;2022-12-20T01:57:39;101169.63;;;8.62;70.33
64158;BME280;50449;51.528;5.076;2022-12-20T02:00:06;101180.16;;;8.63;70.35
64158;BME280;50449;51.528;5.076;2022-12-20T02:02:33;101170.19;;;8.64;70.16
64158;BME280;50449;51.528;5.076;2022-12-20T02:04:59;101164.00;;;8.63;70.17
64158;BME280;50449;51.528;5.076;2022-12-20T02:07:25;101166.47;;;8.65;70.21
64158;BME280;50449;51.528;5.076;2022-12-20T02:09:51;101166.25;;;8.66;70.30
64158;BME280;50449;51.528;5.076;2022-12-20T02:12:24;101154.66;;;8.66;70.13
64158;BME280;50449;51.528;5.076;2022-12-20T02:20:34;101137.47;;;8.67;70.20
64158;BME280;50449;51.528;5.076;2022-12-20T02:30:27;101133.50;;;8.70;70.12
64158;BME280;50449;51.528;5.076;2022-12-20T02:33:04;101133.50;;;8.70;70.22
64158;BME280;50449;51.528;5.076;2022-12-20T02:35:32;101126.25;;;8.70;70.33
64158;BME280;50449;51.528;5.076;2022-12-20T02:37:59;101136.78;;;8.72;70.35
64158;BME280;50449;51.528;5.076;2022-12-20T02:40:30;101134.09;;;8.72;70.50
64158;BME280;50449;51.528;5.076;2022-12-20T02:42:57;101134.94;;;8.72;70.31
64158;BME280;50449;51.528;5.076;2022-12-20T02:45:25;101123.31;;;8.72;70.41
64158;BME280;50449;51.528;5.076;2022-12-20T02:47:58;101130.13;;;8.74;70.33
64158;BME280;50449;51.528;5.076;2022-12-20T02:50:26;101122.03;;;8.74;70.39
64158;BME280;50449;51.528;5.076;2022-12-20T02:52:53;101128.03;;;8.76;70.54
64158;BME280;50449;51.528;5.076;2022-12-20T02:55:19;101122.66;;;8.76;70.65
64158;BME280;50449;51.528;5.076;2022-12-20T02:57:48;101116.44;;;8.76;70.53
64158;BME280;50449;51.528;5.076;2022-12-20T03:00:17;101116.25;;;8.77;70.34
64158;BME280;50449;51.528;5.076;2022-12-20T03:02:43;101122.44;;;8.78;70.64
64158;BME280;50449;51.528;5.076;2022-12-20T03:05:27;101125.13;;;8.78;70.51
64158;BME280;50449;51.528;5.076;2022-12-20T03:07:53;101114.38;;;8.78;70.41
64158;BME280;50449;51.528;5.076;2022-12-20T03:10:18;101116.00;;;8.79;70.25
64158;BME280;50449;51.528;5.076;2022-12-20T03:12:44;101114.97;;;8.80;70.49
64158;BME280;50449;51.528;5.076;2022-12-20T03:15:09;101120.13;;;8.81;70.36
64158;BME280;50449;51.528;5.076;2022-12-20T03:17:34;101120.38;;;8.80;70.37
64158;BME280;50449;51.528;5.076;2022-12-20T03:20:00;101117.44;;;8.81;70.47
64158;BME280;50449;51.528;5.076;2022-12-20T03:22:25;101119.09;;;8.82;70.55
64158;BME280;50449;51.528;5.076;2022-12-20T03:24:51;101126.31;;;8.82;70.53
64158;BME280;50449;51.528;5.076;2022-12-20T03:27:16;101124.47;;;8.82;70.58
64158;BME280;50449;51.528;5.076;2022-12-20T03:29:42;101126.13;;;8.83;70.50
64158;BME280;50449;51.528;5.076;2022-12-20T03:32:08;101122.41;;;8.84;70.35
64158;BME280;50449;51.528;5.076;2022-12-20T03:34:33;101117.81;;;8.85;70.57
64158;BME280;50449;51.528;5.076;2022-12-20T03:36:59;101125.66;;;8.86;70.55
64158;BME280;50449;51.528;5.076;2022-12-20T03:39:24;101114.06;;;8.86;70.33
64158;BME280;50449;51.528;5.076;2022-12-20T03:41:49;101117.59;;;8.86;70.34
64158;BME280;50449;51.528;5.076;2022-12-20T03:44:14;101117.38;;;8.88;70.54
64158;BME280;50449;51.528;5.076;2022-12-20T03:46:40;101120.06;;;8.88;70.72
64158;BME280;50449;51.528;5.076;2022-12-20T03:49:05;101112.81;;;8.88;70.41
64158;BME280;50449;51.528;5.076;2022-12-20T03:51:30;101116.31;;;8.89;70.61
64158;BME280;50449;51.528;5.076;2022-12-20T03:53:55;101114.47;;;8.90;70.54
64158;BME280;50449;51.528;5.076;2022-12-20T03:56:21;101116.94;;;8.91;70.90
64158;BME280;50449;51.528;5.076;2022-12-20T03:58:46;101122.31;;;8.91;70.63
64158;BME280;50449;51.528;5.076;2022-12-20T04:01:15;101134.75;;;8.92;70.57
64158;BME280;50449;51.528;5.076;2022-12-20T04:03:41;101128.31;;;8.93;70.70
64158;BME280;50449;51.528;5.076;2022-12-20T04:06:06;101124.56;;;8.94;70.57
64158;BME280;50449;51.528;5.076;2022-12-20T04:08:31;101122.72;;;8.95;70.55
64158;BME280;50449;51.528;5.076;2022-12-20T04:10:57;101114.63;;;8.95;70.47
64158;BME280;50449;51.528;5.076;2022-12-20T04:13:50;101113.78;;;8.94;70.79
64158;BME280;50449;51.528;5.076;2022-12-20T04:16:16;101107.38;;;8.95;70.56
64158;BME280;50449;51.528;5.076;2022-12-20T04:18:42;101112.75;;;8.95;71.06
64158;BME280;50449;51.528;5.076;2022-12-20T04:21:08;101109.81;;;8.97;70.76
64158;BME280;50449;51.528;5.076;2022-12-20T04:23:33;101106.09;;;8.98;70.93
64158;BME280;50449;51.528;5.076;2022-12-20T04:25:59;101105.03;;;8.99;70.80
64158;BME280;50449;51.528;5.076;2022-12-20T04:28:25;101108.53;;;8.99;70.82
64158;BME280;50449;51.528;5.076;2022-12-20T04:30:50;101108.34;;;9.01;70.61
64158;BME280;50449;51.528;5.076;2022-12-20T04:33:15;101104.38;;;9.03;70.43
64158;BME280;50449;51.528;5.076;2022-12-20T04:35:40;101095.47;;;9.03;70.55
64158;BME280;50449;51.528;5.076;2022-12-20T04:38:06;101096.28;;;9.03;70.47
64158;BME280;50449;51.528;5.076;2022-12-20T04:40:31;101097.91;;;9.04;70.51
64158;BME280;50449;51.528;5.076;2022-12-20T04:42:56;101095.00;;;9.06;70.82
64158;BME280;50449;51.528;5.076;2022-12-20T04:45:21;101098.53;;;9.06;70.78
64158;BME280;50449;51.528;5.076;2022-12-20T04:47:46;101101.22;;;9.06;70.72
64158;BME280;50449;51.528;5.076;2022-12-20T04:50:12;101099.13;;;9.08;70.69
64158;BME280;50449;51.528;5.076;2022-12-20T04:52:37;101085.66;;;9.08;70.78
64158;BME280;50449;51.528;5.076;2022-12-20T04:55:21;101081.09;;;9.09;70.50
64158;BME280;50449;51.528;5.076;2022-12-20T04:57:46;101082.50;;;9.12;70.38
64158;BME280;50449;51.528;5.076;2022-12-20T05:00:13;101073.59;;;9.11;70.53
64158;BME280;50449;51.528;5.076;2022-12-20T05:02:40;101071.72;;;9.12;70.59
64158;BME280;50449;51.528;5.076;2022-12-20T05:05:05;101066.34;;;9.12;70.67
64158;BME280;50449;51.528;5.076;2022-12-20T05:07:30;101053.47;;;9.14;70.75
64158;BME280;50449;51.528;5.076;2022-12-20T05:09:56;101065.88;;;9.15;70.45
64158;BME280;50449;51.528;5.076;2022-12-20T05:12:21;101066.47;;;9.17;70.52
64158;BME280;50449;51.528;5.076;2022-12-20T05:14:46;101065.66;;;9.16;70.43
64158;BME280;50449;51.528;5.076;2022-12-20T05:17:11;101054.66;;;9.18;70.64
64158;BME280;50449;51.528;5.076;2022-12-20T05:19:37;101047.41;;;9.18;70.46
64158;BME280;50449;51.528;5.076;2022-12-20T05:22:02;101047.19;;;9.20;70.61
64158;BME280;50449;51.528;5.076;2022-12-20T05:24:45;101047.19;;;9.20;70.41
64158;BME280;50449;51.528;5.076;2022-12-20T05:27:29;101045.31;;;9.20;70.53
64158;BME280;50449;51.528;5.076;2022-12-20T05:29:55;101044.25;;;9.21;70.44
64158;BME280;50449;51.528;5.076;2022-12-20T05:32:21;101033.47;;;9.21;70.55
64158;BME280;50449;51.528;5.076;2022-12-20T05:34:46;101038.66;;;9.23;70.66
64158;BME280;50449;51.528;5.076;2022-12-20T05:37:11;101042.16;;;9.23;70.25
64158;BME280;50449;51.528;5.076;2022-12-20T05:39:36;101026.81;;;9.24;70.58
64158;BME280;50449;51.528;5.076;2022-12-20T05:42:02;101029.28;;;9.25;70.47
64158;BME280;50449;51.528;5.076;2022-12-20T05:44:27;101026.34;;;9.27;70.54
64158;BME280;50449;51.528;5.076;2022-12-20T05:46:52;101024.72;;;9.26;70.47
64158;BME280;50449;51.528;5.076;2022-12-20T05:49:17;101024.50;;;9.27;70.49
64158;BME280;50449;51.528;5.076;2022-12-20T05:51:43;101014.53;;;9.28;70.59
64158;BME280;50449;51.528;5.076;2022-12-20T05:54:08;101009.94;;;9.28;70.74
64158;BME280;50449;51.528;5.076;2022-12-20T05:56:33;101005.38;;;9.29;70.48
64158;BME280;50449;51.528;5.076;2022-12-20T05:58:58;100994.38;;;9.30;70.41
64158;BME280;50449;51.528;5.076;2022-12-20T06:01:24;100984.41;;;9.31;70.58
64158;BME280;50449;51.528;5.076;2022-12-20T06:03:49;100969.06;;;9.31;70.62
64158;BME280;50449;51.528;5.076;2022-12-20T06:06:15;100970.94;;;9.31;70.54
64158;BME280;50449;51.528;5.076;2022-12-20T06:08:40;100973.41;;;9.32;70.54
64158;BME280;50449;51.528;5.076;2022-12-20T06:11:06;100968.84;;;9.33;70.67
64158;BME280;50449;51.528;5.076;2022-12-20T06:13:31;100968.59;;;9.35;70.46
64158;BME280;50449;51.528;5.076;2022-12-20T06:15:56;100977.53;;;9.35;70.56
64158;BME280;50449;51.528;5.076;2022-12-20T06:18:21;100968.59;;;9.35;70.61
64158;BME280;50449;51.528;5.076;2022-12-20T06:20:50;100976.47;;;9.36;70.52
64158;BME280;50449;51.528;5.076;2022-12-20T06:23:16;100978.09;;;9.37;70.45
64158;BME280;50449;51.528;5.076;2022-12-20T06:25:42;100979.97;;;9.37;70.96
64158;BME280;50449;51.528;5.076;2022-12-20T06:28:07;100988.66;;;9.39;70.63
64158;BME280;50449;51.528;5.076;2022-12-20T06:30:33;100992.16;;;9.39;70.71
64158;BME280;50449;51.528;5.076;2022-12-20T06:32:59;100977.66;;;9.40;70.83
64158;BME280;50449;51.528;5.076;2022-12-20T06:35:24;100968.97;;;9.38;70.76
64158;BME280;50449;51.528;5.076;2022-12-20T06:37:49;100984.91;;;9.40;70.90
64158;BME280;50449;51.528;5.076;2022-12-20T06:40:14;100997.34;;;9.41;70.75
64158;BME280;50449;51.528;5.076;2022-12-20T06:42:40;100981.16;;;9.41;70.75
64158;BME280;50449;51.528;5.076;2022-12-20T06:45:05;100980.34;;;9.40;70.84
64158;BME280;50449;51.528;5.076;2022-12-20T06:47:31;100986.31;;;9.42;70.71
64158;BME280;50449;51.528;5.076;2022-12-20T06:49:56;100985.28;;;9.43;70.70
64158;BME280;50449;51.528;5.076;2022-12-20T06:52:21;100994.19;;;9.44;70.70
64158;BME280;50449;51.528;5.076;2022-12-20T06:54:47;100986.91;;;9.44;70.77
64158;BME280;50449;51.528;5.076;2022-12-20T06:57:12;100980.72;;;9.44;70.61
64158;BME280;50449;51.528;5.076;2022-12-20T06:59:38;100987.50;;;9.46;70.85
64158;BME280;50449;51.528;5.076;2022-12-20T07:02:03;100982.72;;;9.48;70.76
64158;BME280;50449;51.528;5.076;2022-12-20T07:04:28;100987.66;;;9.51;70.64
64158;BME280;50449;51.528;5.076;2022-12-20T07:06:53;100990.34;;;9.51;70.84
64158;BME280;50449;51.528;5.076;2022-12-20T07:09:19;100990.34;;;9.51;70.94
64158;BME280;50449;51.528;5.076;2022-12-20T07:11:44;100981.44;;;9.51;70.90
64158;BME280;50449;51.528;5.076;2022-12-20T07:14:09;100984.94;;;9.51;70.65
64158;BME280;50449;51.528;5.076;2022-12-20T07:16:35;100987.66;;;9.51;70.78
64158;BME280;50449;51.528;5.076;2022-12-20T07:19:00;100983.91;;;9.52;70.67
64158;BME280;50449;51.528;5.076;2022-12-20T07:21:25;100993.63;;;9.53;70.87
64158;BME280;50449;51.528;5.076;2022-12-20T07:23:51;100992.81;;;9.53;70.68
64158;BME280;50449;51.528;5.076;2022-12-20T07:26:16;100991.75;;;9.54;70.99
64158;BME280;50449;51.528;5.076;2022-12-20T07:28:41;100993.19;;;9.57;70.65
64158;BME280;50449;51.528;5.076;2022-12-20T07:31:07;101001.03;;;9.58;70.55
64158;BME280;50449;51.528;5.076;2022-12-20T07:33:32;100997.53;;;9.58;70.65
64158;BME280;50449;51.528;5.076;2022-12-20T07:36:04;100996.47;;;9.59;70.65
64158;BME280;50449;51.528;5.076;2022-12-20T07:38:30;100999.97;;;9.59;70.72
64158;BME280;50449;51.528;5.076;2022-12-20T07:40:55;101007.25;;;9.59;70.71
64158;BME280;50449;51.528;5.076;2022-12-20T07:43:21;101003.75;;;9.58;70.75
64158;BME280;50449;51.528;5.076;2022-12-20T07:45:46;101019.94;;;9.58;70.77
64158;BME280;50449;51.528;5.076;2022-12-20T07:48:12;101012.66;;;9.59;70.90
64158;BME280;50449;51.528;5.076;2022-12-20T07:50:38;101018.25;;;9.57;70.84
64158;BME280;50449;51.528;5.076;2022-12-20T07:53:04;101016.41;;;9.58;71.09
64158;BME280;50449;51.528;5.076;2022-12-20T07:55:30;101017.22;;;9.58;70.73
64158;BME280;50449;51.528;5.076;2022-12-20T07:57:56;101018.88;;;9.59;70.75
64158;BME280;50449;51.528;5.076;2022-12-20T08:00:22;101026.94;;;9.59;70.76
64158;BME280;50449;51.528;5.076;2022-12-20T08:02:51;101025.31;;;9.58;70.72
64158;BME280;50449;51.528;5.076;2022-12-20T08:05:18;101020.75;;;9.59;70.92
64158;BME280;50449;51.528;5.076;2022-12-20T08:07:44;101029.66;;;9.59;71.10
64158;BME280;50449;51.528;5.076;2022-12-20T08:10:11;101033.16;;;9.60;70.97
64158;BME280;50449;51.528;5.076;2022-12-20T08:12:37;101018.88;;;9.59;71.00
64158;BME280;50449;51.528;5.076;2022-12-20T08:15:03;101022.38;;;9.60;70.97
64158;BME280;50449;51.528;5.076;2022-12-20T08:17:29;101026.72;;;9.61;70.83
64158;BME280;50449;51.528;5.076;2022-12-20T08:19:54;101015.94;;;9.61;70.96
64158;BME280;50449;51.528;5.076;2022-12-20T08:22:21;101020.28;;;9.62;70.88
64158;BME280;50449;51.528;5.076;2022-12-20T08:24:47;101027.34;;;9.63;71.06
64158;BME280;50449;51.528;5.076;2022-12-20T08:27:12;101019.47;;;9.61;70.78
64158;BME280;50449;51.528;5.076;2022-12-20T08:29:37;101015.69;;;9.62;70.97
64158;BME280;50449;51.528;5.076;2022-12-20T08:32:03;101018.19;;;9.64;70.91
64158;BME280;50449;51.528;5.076;2022-12-20T08:34:28;101012.78;;;9.64;70.81
64158;BME280;50449;51.528;5.076;2022-12-20T08:36:54;101015.47;;;9.64;70.89
64158;BME280;50449;51.528;5.076;2022-12-20T08:39:19;101014.41;;;9.65;70.72
64158;BME280;50449;51.528;5.076;2022-12-20T08:41:44;101006.31;;;9.65;70.87
64158;BME280;50449;51.528;5.076;2022-12-20T08:44:09;101000.94;;;9.65;70.79
64158;BME280;50449;51.528;5.076;2022-12-20T08:46:35;100997.19;;;9.66;70.96
64158;BME280;50449;51.528;5.076;2022-12-20T08:49:01;100998.00;;;9.66;70.76
64158;BME280;50449;51.528;5.076;2022-12-20T08:51:26;100993.44;;;9.67;71.00
64158;BME280;50449;51.528;5.076;2022-12-20T08:53:53;100993.44;;;9.67;70.85
64158;BME280;50449;51.528;5.076;2022-12-20T08:56:18;100993.44;;;9.67;70.93
64158;BME280;50449;51.528;5.076;2022-12-20T08:58:44;100994.03;;;9.69;70.80
64158;BME280;50449;51.528;5.076;2022-12-20T09:01:10;100996.72;;;9.69;70.91
64158;BME280;50449;51.528;5.076;2022-12-20T09:03:36;100988.63;;;9.69;70.74
64158;BME280;50449;51.528;5.076;2022-12-20T09:06:06;100989.47;;;9.69;70.83
64158;BME280;50449;51.528;5.076;2022-12-20T09:08:38;100999.22;;;9.70;71.04
64158;BME280;50449;51.528;5.076;2022-12-20T09:13:29;100988.16;;;9.72;71.25
64158;BME280;50449;51.528;5.076;2022-12-20T09:15:54;100994.97;;;9.74;70.98
64158;BME280;50449;51.528;5.076;2022-12-20T09:18:20;100997.47;;;9.76;71.24
64158;BME280;50449;51.528;5.076;2022-12-20T09:20:45;101000.16;;;9.76;71.33
64158;BME280;50449;51.528;5.076;2022-12-20T09:23:10;100999.09;;;9.77;71.20
64158;BME280;50449;51.528;5.076;2022-12-20T09:25:36;100999.09;;;9.77;71.35
64158;BME280;50449;51.528;5.076;2022-12-20T09:28:02;101000.75;;;9.78;71.28
64158;BME280;50449;51.528;5.076;2022-12-20T09:30:27;100997.22;;;9.78;71.19
64158;BME280;50449;51.528;5.076;2022-12-20T09:32:52;100995.94;;;9.80;71.52
64158;BME280;50449;51.528;5.076;2022-12-20T09:35:18;100994.28;;;9.79;71.19
64158;BME280;50449;51.528;5.076;2022-12-20T09:37:43;100993.22;;;9.80;71.23
64158;BME280;50449;51.528;5.076;2022-12-20T09:40:13;100989.72;;;9.80;71.19
64158;BME280;50449;51.528;5.076;2022-12-20T09:42:38;100998.41;;;9.82;71.32
64158;BME280;50449;51.528;5.076;2022-12-20T09:45:07;100984.09;;;9.81;71.31
64158;BME280;50449;51.528;5.076;2022-12-20T09:47:34;101001.91;;;9.82;71.33
64158;BME280;50449;51.528;5.076;2022-12-20T09:50:00;100991.97;;;9.83;71.31
64158;BME280;50449;51.528;5.076;2022-12-20T09:52:33;100986.56;;;9.83;71.08
64158;BME280;50449;51.528;5.076;2022-12-20T09:55:11;100998.19;;;9.83;71.25
64158;BME280;50449;51.528;5.076;2022-12-20T10:00:13;100983.63;;;9.84;71.06
64158;BME280;50449;51.528;5.076;2022-12-20T10:02:39;100987.13;;;9.85;71.37
64158;BME280;50449;51.528;5.076;2022-12-20T10:05:05;100994.19;;;9.86;71.28
64158;BME280;50449;51.528;5.076;2022-12-20T10:07:38;100993.38;;;9.85;71.28
64158;BME280;50449;51.528;5.076;2022-12-20T10:15:28;100995.63;;;9.88;71.26
64158;BME280;50449;51.528;5.076;2022-12-20T10:22:58;100993.72;;;9.89;71.23
64158;BME280;50449;51.528;5.076;2022-12-20T10:25:30;100991.03;;;9.89;71.27
64158;BME280;50449;51.528;5.076;2022-12-20T10:27:56;100988.13;;;9.90;71.25
64158;BME280;50449;51.528;5.076;2022-12-20T10:30:23;100987.88;;;9.92;71.40
64158;BME280;50449;51.528;5.076;2022-12-20T10:32:51;100990.34;;;9.93;71.52
64158;BME280;50449;51.528;5.076;2022-12-20T10:37:55;100978.72;;;9.93;71.35
64158;BME280;50449;51.528;5.076;2022-12-20T10:42:55;100981.19;;;9.94;71.45
64158;BME280;50449;51.528;5.076;2022-12-20T10:45:25;100973.91;;;9.95;71.42
64158;BME280;50449;51.528;5.076;2022-12-20T10:47:51;100977.44;;;9.95;71.33
64158;BME280;50449;51.528;5.076;2022-12-20T10:50:22;100985.28;;;9.97;71.33
64158;BME280;50449;51.528;5.076;2022-12-20T10:55:46;100976.16;;;9.98;71.37
64158;BME280;50449;51.528;5.076;2022-12-20T11:01:03;100973.22;;;10.00;71.42
64158;BME280;50449;51.528;5.076;2022-12-20T11:03:29;100965.94;;;10.00;71.27
64158;BME280;50449;51.528;5.076;2022-12-20T11:08:20;100966.53;;;10.02;71.47
64158;BME280;50449;51.528;5.076;2022-12-20T11:10:46;100971.91;;;10.02;71.43
64158;BME280;50449;51.528;5.076;2022-12-20T11:13:24;100959.03;;;10.04;71.49
64158;BME280;50449;51.528;5.076;2022-12-20T11:15:51;100966.03;;;10.05;71.36
64158;BME280;50449;51.528;5.076;2022-12-20T11:18:30;100961.50;;;10.06;71.58
64158;BME280;50449;51.528;5.076;2022-12-20T11:28:38;100956.44;;;10.09;71.48
64158;BME280;50449;51.528;5.076;2022-12-20T11:31:15;100950.22;;;10.09;71.55
64158;BME280;50449;51.528;5.076;2022-12-20T11:41:35;100941.66;;;10.12;71.57
64158;BME280;50449;51.528;5.076;2022-12-20T11:49:05;100940.34;;;10.14;71.72
64158;BME280;50449;51.528;5.076;2022-12-20T11:51:46;100940.34;;;10.14;71.64
64158;BME280;50449;51.528;5.076;2022-12-20T11:56:50;100930.38;;;10.15;71.65
64158;BME280;50449;51.528;5.076;2022-12-20T12:04:40;100925.34;;;10.18;71.77
64158;BME280;50449;51.528;5.076;2022-12-20T12:07:08;100918.88;;;10.19;71.66
64158;BME280;50449;51.528;5.076;2022-12-20T12:09:36;100915.97;;;10.21;71.58
64158;BME280;50449;51.528;5.076;2022-12-20T12:14:58;100916.56;;;10.23;71.56
64158;BME280;50449;51.528;5.076;2022-12-20T12:17:28;100920.88;;;10.24;71.65
64158;BME280;50449;51.528;5.076;2022-12-20T12:19:59;100915.47;;;10.24;71.81
64158;BME280;50449;51.528;5.076;2022-12-20T12:22:28;100913.59;;;10.25;71.71
64158;BME280;50449;51.528;5.076;2022-12-20T12:24:57;100915.25;;;10.26;71.72
64158;BME280;50449;51.528;5.076;2022-12-20T12:27:25;100906.91;;;10.27;71.68
64158;BME280;50449;51.528;5.076;2022-12-20T12:29:51;100911.47;;;10.27;71.84
64158;BME280;50449;51.528;5.076;2022-12-20T12:39:54;100909.41;;;10.29;71.81
64158;BME280;50449;51.528;5.076;2022-12-20T12:45:13;100919.72;;;10.32;71.84
64158;BME280;50449;51.528;5.076;2022-12-20T12:47:44;100911.63;;;10.32;71.72
64158;BME280;50449;51.528;5.076;2022-12-20T12:50:56;100908.94;;;10.32;71.79
64158;BME280;50449;51.528;5.076;2022-12-20T12:53:05;100910.56;;;10.33;71.80
64158;BME280;50449;51.528;5.076;2022-12-20T12:55:37;100913.03;;;10.34;71.97
64158;BME280;50449;51.528;5.076;2022-12-20T13:01:03;100908.44;;;10.35;72.02
64158;BME280;50449;51.528;5.076;2022-12-20T13:11:28;100906.34;;;10.37;72.03
64158;BME280;50449;51.528;5.076;2022-12-20T13:16:35;100908.81;;;10.38;71.86
64158;BME280;50449;51.528;5.076;2022-12-20T13:19:03;100903.41;;;10.38;71.73
64158;BME280;50449;51.528;5.076;2022-12-20T13:21:35;100902.34;;;10.39;71.85
64158;BME280;50449;51.528;5.076;2022-12-20T13:26:51;100904.81;;;10.41;71.74
64158;BME280;50449;51.528;5.076;2022-12-20T13:29:21;100903.75;;;10.42;72.16
64158;BME280;50449;51.528;5.076;2022-12-20T13:31:47;100903.75;;;10.42;71.84
64158;BME280;50449;51.528;5.076;2022-12-20T13:34:34;100901.84;;;10.43;71.95
64158;BME280;50449;51.528;5.076;2022-12-20T13:36:58;100897.28;;;10.43;71.99
64158;BME280;50449;51.528;5.076;2022-12-20T13:39:33;100898.94;;;10.44;72.09
64158;BME280;50449;51.528;5.076;2022-12-20T13:42:12;100898.94;;;10.44;72.14
64158;BME280;50449;51.528;5.076;2022-12-20T13:47:11;100900.34;;;10.47;71.91
64158;BME280;50449;51.528;5.076;2022-12-20T13:49:42;100901.16;;;10.47;72.04
64158;BME280;50449;51.528;5.076;2022-12-20T13:54:43;100892.81;;;10.49;71.86
64158;BME280;50449;51.528;5.076;2022-12-20T13:57:10;100892.81;;;10.49;71.99
64158;BME280;50449;51.528;5.076;2022-12-20T13:59:39;100890.13;;;10.49;71.92
64158;BME280;50449;51.528;5.076;2022-12-20T14:02:10;100890.94;;;10.49;71.92
64158;BME280;50449;51.528;5.076;2022-12-20T14:04:42;100900.66;;;10.50;72.15
64158;BME280;50449;51.528;5.076;2022-12-20T14:07:08;100899.84;;;10.50;71.92
64158;BME280;50449;51.528;5.076;2022-12-20T14:09:37;100895.25;;;10.50;72.13
64158;BME280;50449;51.528;5.076;2022-12-20T14:14:28;100897.75;;;10.52;71.90
64158;BME280;50449;51.528;5.076;2022-12-20T14:16:53;100898.56;;;10.52;72.02
64158;BME280;50449;51.528;5.076;2022-12-20T14:19:19;100895.63;;;10.54;72.10
64158;BME280;50449;51.528;5.076;2022-12-20T14:21:44;100893.97;;;10.53;72.25
64158;BME280;50449;51.528;5.076;2022-12-20T14:24:14;100886.72;;;10.53;71.95
64158;BME280;50449;51.528;5.076;2022-12-20T14:26:41;100892.94;;;10.54;72.01
64158;BME280;50449;51.528;5.076;2022-12-20T14:29:14;100882.94;;;10.54;72.08
64158;BME280;50449;51.528;5.076;2022-12-20T14:31:43;100889.97;;;10.55;72.02
64158;BME280;50449;51.528;5.076;2022-12-20T14:36:35;100882.72;;;10.56;71.97
64158;BME280;50449;51.528;5.076;2022-12-20T14:39:09;100882.72;;;10.56;72.04
64158;BME280;50449;51.528;5.076;2022-12-20T14:41:45;100887.03;;;10.57;71.81
64158;BME280;50449;51.528;5.076;2022-12-20T14:44:16;100894.91;;;10.58;71.83
64158;BME280;50449;51.528;5.076;2022-12-20T14:46:47;100891.38;;;10.58;71.72
64158;BME280;50449;51.528;5.076;2022-12-20T14:49:16;100884.94;;;10.59;71.89